Latest Weather Observations for Coonabarabran Airport

IDN60801

Issued at 9:32 pm EDT Saturday 16 December 2017 (issued every 30 minutes, with the page automatically refreshed every 10 minutes)

About weather observations | Map of weather stations | Latest weather observations for NSW | Other Formats
Station Details ID: 064017 Name: COONABARABRAN AIRPORT AWS Lat: -31.33 Lon: 149.27 Height: 645.0 m
Data from the previous 72 hours. | See also: Recent months at Coonabarabran Airport
Date/Time
EDT
Temp
°C
App
Temp
°C
Dew
Point
°C
Rel
Hum
%
Delta-T
°C
Wind Press
QNH
hPa
Press
MSL
hPa
Rain since
9am
mm
Dir  Spd
km/h
Gust
km/h
Spd
kts
Gust
kts
16/09:30pm 29.5 27.1 8.5 27 11.9 ENE 11 11 6 6 1014.0 1010.5 0.0
16/09:00pm 30.6 30.2 8.3 25 12.7 CALM 0 0 0 0 1013.9 1010.4 0.0
16/08:30pm 30.7 29.6 8.4 25 12.7 NW 4 6 2 3 1013.8 1010.3 0.0
16/08:00pm 31.5 29.7 7.9 23 13.4 WSW 7 9 4 5 1013.5 1010.0 0.0
16/07:30pm 32.5 30.3 8.0 22 14.0 SW 9 15 5 8 1013.2 1009.7 0.0
16/07:00pm 33.8 32.5 9.1 22 14.4 NW 6 11 3 6 1012.9 1009.4 0.0
16/06:30pm 34.7 32.8 9.2 21 14.9 W 9 17 5 9 1012.8 1009.2 0.0
16/06:00pm 34.5 32.0 9.7 22 14.6 WNW 13 24 7 13 1012.7 1009.1 0.0
16/05:30pm 34.0 29.5 9.9 23 14.2 WNW 24 35 13 19 1012.8 1009.2 0.0
16/05:00pm 35.4 32.5 9.7 21 15.2 NW 15 26 8 14 1013.0 1009.5 0.0
16/04:30pm 35.2 31.9 10.9 23 14.6 W 19 30 10 16 1013.4 1009.9 0.0
16/04:00pm 34.0 31.2 9.9 23 14.2 WNW 15 28 8 15 1013.8 1010.3 0.0
16/03:30pm 34.1 30.0 10.0 23 14.3 NNW 22 33 12 18 1014.2 1010.6 0.0
16/03:00pm 34.3 31.7 12.0 25 13.6 NNW 17 30 9 16 1014.5 1011.0 0.0
16/02:30pm 33.3 30.7 10.6 25 13.5 NW 15 30 8 16 1015.0 1011.5 0.0
16/02:00pm 33.0 30.6 11.5 27 12.9 WNW 15 22 8 12 1015.4 1011.9 0.0
16/01:30pm 32.5 30.5 12.7 30 12.1 NNW 15 26 8 14 1015.9 1012.4 0.0
16/01:00pm 31.4 28.9 13.6 33 11.0 N 19 30 10 16 1016.1 1012.6 0.0
16/12:30pm 31.6 29.0 13.8 34 11.0 NNW 20 30 11 16 1016.4 1012.9 0.0
16/12:00pm 30.7 28.0 13.5 35 10.6 NNW 20 32 11 17 1016.7 1013.2 0.0
16/11:30am 30.3 27.5 14.4 38 9.9 NNW 22 35 12 19 1016.7 1013.2 0.0
16/11:00am 29.8 26.7 14.4 39 9.6 N 24 35 13 19 1016.8 1013.3 0.0
16/10:30am 28.0 24.2 13.5 41 8.8 N 26 35 14 19 1016.9 1013.4 0.0
16/10:00am 27.8 24.9 14.1 43 8.4 N 22 32 12 17 1017.1 1013.7 0.0
16/09:30am 26.3 22.9 13.8 46 7.6 N 24 32 13 17 1017.2 1013.8 0.0
16/09:00am 25.9 23.3 13.7 47 7.4 NNW 20 33 11 18 1017.0 1013.6 0.0
16/08:30am 25.5 21.7 13.7 48 7.1 N 26 37 14 20 1016.1 1012.6 0.0
16/08:00am 25.0 20.4 13.5 48 6.9 N 30 41 16 22 1016.0 1012.5 0.0
16/07:30am 24.1 19.9 13.6 52 6.3 N 28 37 15 20 1015.7 1012.3 0.0
16/07:00am 23.3 21.8 14.3 57 5.4 N 15 22 8 12 1015.6 1012.2 0.0
16/06:30am 22.3 22.1 14.7 62 4.6 N 9 13 5 7 1015.3 1011.8 0.0
16/06:00am 22.5 22.8 14.4 60 4.9 E 6 15 3 8 1015.1 1011.6 0.0
16/05:30am 22.0 22.0 14.1 61 4.7 SE 7 13 4 7 1014.8 1011.3 0.0
16/05:00am 22.7 22.4 14.3 59 5.1 SSE 9 11 5 6 1014.7 1011.2 0.0
16/04:30am 22.9 22.2 14.2 58 5.3 S 11 15 6 8 1014.4 1010.9 0.0
16/04:00am 23.0 21.8 14.0 57 5.4 S 13 17 7 9 1014.2 1010.6 0.0
16/03:30am 23.2 22.6 14.7 58 5.2 SSW 11 15 6 8 1013.9 1010.4 0.0
16/03:00am 23.3 22.9 15.1 60 5.0 SSW 11 13 6 7 1013.7 1010.2 0.0
16/02:30am 23.5 23.6 15.5 60 4.9 SSW 9 13 5 7 1013.8 1010.3 0.0
16/02:00am 23.3 23.4 15.6 62 4.8 SSW 9 13 5 7 1013.9 1010.4 0.0
16/01:30am 23.2 23.0 15.8 63 4.6 SSW 11 13 6 7 1014.0 1010.5 0.0
16/01:00am 23.2 23.0 15.8 63 4.6 S 11 13 6 7 1014.4 1010.9 0.0
16/12:30am 23.7 23.1 15.7 61 5.0 S 13 15 7 8 1014.5 1011.0 0.0
16/12:00am 24.2 23.6 15.7 59 5.3 SSW 13 17 7 9 1014.7 1011.2 0.0
 
Date/Time
EDT
Temp
°C
App
Temp
°C
Dew
Point
°C
Rel
Hum
%
Delta-T
°C
Wind Press
QNH
hPa
Press
MSL
hPa
Rain since
9am
mm
Dir  Spd
km/h
Gust
km/h
Spd
kts
Gust
kts
15/11:30pm 24.8 23.5 15.7 57 5.7 SSE 17 22 9 12 1014.6 1011.1 0.0
15/11:00pm 25.5 24.0 15.2 53 6.4 S 17 22 9 12 1014.8 1011.3 0.0
15/10:30pm 26.6 24.6 15.0 49 7.2 SSE 19 26 10 14 1014.6 1011.1 0.0
15/10:00pm 27.1 25.4 14.8 47 7.6 S 17 28 9 15 1014.3 1010.8 0.0
15/09:30pm 28.0 25.9 14.6 44 8.3 SE 19 24 10 13 1013.7 1010.2 0.0
15/09:00pm 28.4 26.0 13.9 41 8.9 SSE 19 26 10 14 1013.5 1010.0 0.0
15/08:30pm 29.6 26.0 9.7 29 11.5 S 19 26 10 14 1013.2 1009.7 0.0
15/08:00pm 30.6 27.2 7.7 24 12.9 S 15 22 8 12 1012.7 1009.1 0.0
15/07:30pm 31.8 27.4 7.5 22 13.7 SW 20 33 11 18 1012.2 1008.7 0.0
15/07:00pm 32.5 31.0 6.7 20 14.4 NW 4 9 2 5 1011.7 1008.2 0.0
15/06:30pm 32.8 29.5 6.2 19 14.7 W 13 19 7 10 1011.5 1008.0 0.0
15/06:00pm 33.4 29.0 6.6 19 15.0 WNW 19 24 10 13 1011.4 1007.8 0.0
15/05:30pm 33.8 29.9 7.0 19 15.1 NW 17 26 9 14 1011.4 1007.8 0.0
15/05:00pm 33.2 30.7 6.5 19 14.9 SW 9 17 5 9 1011.4 1007.8 0.0
15/04:30pm 34.6 31.2 7.6 19 15.4 NW 15 20 8 11 1011.5 1008.0 0.0
15/04:00pm 34.1 30.6 7.2 19 15.3 NNW 15 24 8 13 1011.7 1008.2 0.0
15/03:30pm 33.4 29.2 7.4 20 14.7 NNW 19 28 10 15 1011.8 1008.3 0.0
15/03:00pm 33.8 29.3 6.2 18 15.4 W 19 26 10 14 1012.0 1008.5 0.0
15/02:30pm 34.5 31.6 8.3 20 15.1 WNW 13 26 7 14 1012.3 1008.8 0.0
15/02:00pm 33.8 30.4 9.1 22 14.4 NW 17 24 9 13 1012.7 1009.1 0.0
15/01:30pm 33.5 30.6 9.5 23 14.1 N 15 20 8 11 1013.1 1009.6 0.0
15/01:00pm 33.3 29.6 9.4 23 14.0 NNW 19 28 10 15 1013.4 1009.9 0.0
15/12:30pm 32.4 28.7 8.0 22 13.9 WNW 17 26 9 14 1013.7 1010.2 0.0
15/12:00pm 31.9 27.8 8.8 24 13.3 NNW 20 30 11 16 1014.0 1010.5 0.0
15/11:30am 31.8 27.7 8.7 24 13.3 NNW 20 28 11 15 1014.2 1010.6 0.0
15/11:00am 31.1 27.4 9.3 26 12.6 NW 19 32 10 17 1014.3 1010.8 0.0
15/10:30am 30.7 27.0 9.6 27 12.2 NNW 19 30 10 16 1014.0 1010.5 0.0
15/10:00am 29.1 25.5 10.7 32 10.8 NNW 20 28 11 15 1014.2 1010.6 0.0
15/09:30am 27.5 23.2 10.7 35 9.8 N 24 32 13 17 1014.0 1010.5 0.0
15/09:00am 26.4 21.2 10.1 36 9.3 NNW 28 37 15 20 1013.9 1010.4 0.0
15/08:30am 25.8 20.6 10.4 38 8.8 N 28 39 15 21 1013.8 1010.3 0.0
15/08:00am 24.6 20.2 10.5 41 8.1 NNW 24 35 13 19 1013.7 1010.2 0.0
15/07:30am 23.1 19.1 10.5 45 7.2 N 22 32 12 17 1013.5 1010.0 0.0
15/07:00am 22.8 18.6 9.6 43 7.4 N 22 28 12 15 1013.4 1009.9 0.0
15/06:30am 22.9 19.1 9.0 41 7.7 NNW 19 26 10 14 1013.0 1009.5 0.0
15/06:00am 23.4 19.1 7.9 37 8.4 NNW 20 26 11 14 1012.6 1009.0 0.0
15/05:30am 24.0 19.6 7.2 34 9.0 N 20 28 11 15 1012.1 1008.6 0.0
15/05:00am 23.6 20.5 7.3 35 8.8 NNE 13 19 7 10 1012.0 1008.5 0.0
15/04:30am 24.6 22.3 7.3 33 9.4 W 9 13 5 7 1011.4 1007.8 0.0
15/04:00am 25.5 22.0 7.1 31 10.0 NNW 15 17 8 9 1011.2 1007.6 0.0
15/03:30am 26.3 22.7 6.9 29 10.5 NNW 15 19 8 10 1011.2 1007.6 0.0
15/03:00am 25.9 23.1 7.0 30 10.3 W 11 13 6 7 1011.4 1007.8 0.0
15/02:30am 25.6 22.9 7.2 31 10.0 NW 11 15 6 8 1011.5 1008.0 0.0
15/02:00am 26.6 22.3 7.1 29 10.6 NNW 19 22 10 12 1011.4 1007.8 0.0
15/01:30am 25.6 22.1 7.2 31 10.0 NNW 15 17 8 9 1011.7 1008.2 0.0
15/01:00am 26.7 23.1 6.7 28 10.8 NNW 15 19 8 10 1011.8 1008.3 0.0
15/12:30am 26.9 23.0 6.9 28 10.9 NNW 17 19 9 10 1012.0 1008.5 0.0
15/12:00am 26.7 22.8 7.2 29 10.7 NNW 17 19 9 10 1012.2 1008.7 0.0
 
Date/Time
EDT
Temp
°C
App
Temp
°C
Dew
Point
°C
Rel
Hum
%
Delta-T
°C
Wind Press
QNH
hPa
Press
MSL
hPa
Rain since
9am
mm
Dir  Spd
km/h
Gust
km/h
Spd
kts
Gust
kts
14/11:30pm 26.8 23.3 7.3 29 10.7 NNW 15 17 8 9 1012.2 1008.7 0.0
14/11:00pm 26.2 22.8 7.7 31 10.2 NNW 15 17 8 9 1012.3 1008.8 0.0
14/10:30pm 28.7 26.2 6.7 25 12.0 NNW 9 15 5 8 1012.1 1008.6 0.0
14/10:00pm 29.3 26.8 6.7 24 12.4 NNW 9 9 5 5 1011.9 1008.4 0.0
14/09:30pm 29.2 26.8 7.2 25 12.2 NNW 9 9 5 5 1011.7 1008.2 0.0
14/09:00pm 29.6 27.2 6.9 24 12.5 NNW 9 11 5 6 1011.7 1008.2 0.0
14/08:30pm 30.2 27.9 7.4 24 12.7 NNW 9 9 5 5 1011.6 1008.1 0.0
14/08:00pm 30.7 28.3 7.2 23 13.1 NNW 9 11 5 6 1011.3 1007.7 0.0
14/07:30pm 31.7 29.0 7.4 22 13.7 NW 11 15 6 8 1011.0 1007.4 0.0
14/07:00pm 33.0 31.0 7.1 20 14.6 NNW 7 13 4 7 1010.6 1007.1 0.0
14/06:30pm 33.2 31.1 6.5 19 14.9 NNW 7 13 4 7 1010.5 1007.0 0.0
14/06:00pm 33.8 30.1 6.2 18 15.4 NW 15 22 8 12 1010.5 1007.0 0.0
14/05:30pm 34.7 32.5 7.7 19 15.5 W 9 19 5 10 1010.4 1006.9 0.0
14/05:00pm 34.2 31.3 6.5 18 15.6 N 11 20 6 11 1010.6 1007.1 0.0
14/04:30pm 33.7 30.7 7.6 20 14.9 N 13 19 7 10 1010.9 1007.3 0.0
14/04:00pm 34.2 30.7 7.3 19 15.3 NW 15 24 8 13 1011.2 1007.6 0.0
14/03:30pm 33.3 29.8 7.3 20 14.7 NNW 15 22 8 12 1011.6 1008.1 0.0
14/03:00pm 33.5 30.0 8.9 22 14.3 N 17 24 9 13 1011.8 1008.3 0.0
14/02:30pm 32.9 29.3 8.4 22 14.1 N 17 30 9 16 1012.1 1008.6 0.0
14/02:00pm 32.1 28.1 9.0 24 13.4 NNW 20 35 11 19 1012.4 1008.9 0.0
14/01:30pm 32.5 28.5 10.5 26 13.0 NW 22 35 12 19 1012.8 1009.2 0.0
14/01:00pm 31.8 27.3 9.9 26 12.8 NNW 24 32 13 17 1013.2 1009.7 0.0
14/12:30pm 31.3 27.3 10.6 28 12.2 NNW 22 33 12 18 1013.5 1010.0 0.0
14/12:00pm 30.8 26.1 10.7 29 11.9 N 26 35 14 19 1013.7 1010.2 0.0
14/11:30am 30.0 26.4 12.9 35 10.4 NNW 24 33 13 18 1014.0 1010.5 0.0
14/11:00am 28.2 24.2 11.7 36 9.8 NNW 24 35 13 19 1014.3 1010.8 0.0
14/10:30am 27.5 22.3 11.5 37 9.4 NNW 30 44 16 24 1014.0 1010.5 0.0
14/10:12am 27.8 22.4 12.2 38 9.3 NNW 32 50 17 27 1013.8 1010.3 0.0
14/10:00am 27.3 21.8 13.6 43 8.3 NNW 35 48 19 26 1013.8 1010.3 0.0
14/09:30am 25.7 20.3 12.9 45 7.7 N 33 48 18 26 1013.8 1010.3 0.0
14/09:00am 24.3 18.1 12.6 48 6.9 NNW 37 48 20 26 1013.9 1010.4 0.0
14/08:30am 23.5 17.7 12.8 51 6.3 NNW 35 46 19 25 1014.2 1010.6 0.0
14/08:00am 22.8 16.5 12.4 52 6.1 NNW 37 48 20 26 1014.0 1010.5 0.0
14/07:30am 22.2 16.8 12.2 53 5.8 NNW 32 44 17 24 1013.8 1010.3 0.0
14/07:00am 21.5 15.9 11.5 53 5.7 NNW 32 43 17 23 1013.5 1010.0 0.0
14/06:30am 21.0 16.0 10.8 52 5.8 NNW 28 37 15 20 1013.4 1009.9 0.0
14/06:00am 21.0 15.0 10.2 50 6.0 NNW 32 41 17 22 1013.0 1009.5 0.0
14/05:30am 21.0 15.9 9.3 47 6.4 NNW 26 35 14 19 1013.1 1009.6 0.0
14/05:00am 21.4 15.8 8.7 44 6.9 NNW 28 39 15 21 1012.8 1009.2 0.0
14/04:30am 21.8 16.7 7.6 40 7.6 N 24 35 13 19 1012.8 1009.2 0.0
14/04:00am 23.1 18.7 6.4 34 8.8 N 19 32 10 17 1012.8 1009.2 0.0
14/03:30am 23.8 19.6 5.7 31 9.5 NNW 17 20 9 11 1012.4 1008.9 0.0
14/03:00am 24.0 19.8 5.8 31 9.6 NNW 17 20 9 11 1012.7 1009.1 0.0
14/02:30am 24.1 19.9 5.9 31 9.6 NNW 17 20 9 11 1012.8 1009.2 0.0
14/02:00am 24.5 21.2 6.3 31 9.7 NNW 13 17 7 9 1013.0 1009.5 0.0
14/01:30am 24.7 21.1 6.9 32 9.6 NNW 15 17 8 9 1013.2 1009.7 0.0
14/01:00am 24.5 21.1 7.6 34 9.2 NNW 15 17 8 9 1013.4 1009.9 0.0
14/12:30am 24.6 21.2 7.7 34 9.2 NNW 15 17 8 9 1013.6 1010.1 0.0
14/12:00am 24.6 21.3 8.1 35 9.1 NNW 15 17 8 9 1013.8 1010.3 0.0
 
Date/Time
EDT
Temp
°C
App
Temp
°C
Dew
Point
°C
Rel
Hum
%
Delta-T
°C
Wind Press
QNH
hPa
Press
MSL
hPa
Rain since
9am
mm
Dir  Spd
km/h
Gust
km/h
Spd
kts
Gust
kts
13/11:30pm 25.1 22.2 8.1 34 9.4 N 13 17 7 9 1014.2 1010.6 0.0
13/11:00pm 26.2 23.7 8.2 32 10.0 NNW 11 13 6 7 1014.2 1010.6 0.0
13/10:30pm 26.0 24.0 8.5 33 9.7 NNW 9 11 5 6 1014.3 1010.8 0.0
13/10:00pm 27.3 25.6 8.2 30 10.6 NW 7 9 4 5 1014.3 1010.8 0.0

Other Formats:

Comma delimited format used in spreadsheet applications
http://www.bom.gov.au/fwo/IDN60801/IDN60801.95728.axf

JavaScript Object Notation format (JSON) in row-major order
http://www.bom.gov.au/fwo/IDN60801/IDN60801.95728.json